Terminal Aerodrome Forecast
Issued by NWS

Home | Current Version | Previous Version | Text Only | Print | Product List | Glossary On
Versions: 1 2 3 4 5 6 7 8 9 10 11 12 13 14 15 16 17 18 19 20 21 22
678
FTUS46 KLOX 190636 AAA
TAFSBA
TAF AMD
KSBA 190636Z 1907/2006 12012KT P6SM -SHRA BKN015 OVC050
     FM191000 12015G25KT 3SM RA BR VCTS BKN012CB OVC025
     FM191500 23015KT P6SM -SHRA BKN025 BKN050
     FM191900 28015G23KT P6SM VCSH SCT025 BKN050
     FM200100 30010KT P6SM SCT025 BKN050=

USA.gov is the U.S. government's official web portal to all federal, state and local government web resources and services.